createdAt,value
2018-09-26T00:01:50.728Z,8.79
2018-09-26T00:05:54.093Z,8.78
2018-09-26T00:09:57.480Z,8.76
2018-09-26T00:14:00.874Z,8.75
2018-09-26T00:18:04.593Z,8.70
2018-09-26T00:22:08.453Z,8.62
2018-09-26T00:26:11.844Z,8.55
2018-09-26T00:30:15.272Z,8.55
2018-09-26T00:34:18.732Z,8.53
2018-09-26T00:38:22.246Z,8.54
2018-09-26T00:42:25.636Z,8.55
2018-09-26T00:46:29.123Z,8.54
2018-09-26T00:50:32.487Z,8.50
2018-09-26T00:54:35.890Z,8.48
2018-09-26T00:58:39.250Z,8.45
2018-09-26T01:02:42.659Z,8.41
2018-09-26T01:06:46.012Z,8.35
2018-09-26T01:10:49.458Z,8.29
2018-09-26T01:14:52.838Z,8.26
2018-09-26T01:18:56.247Z,8.25
2018-09-26T01:22:59.622Z,8.25
2018-09-26T01:27:03.331Z,8.21
2018-09-26T01:31:06.767Z,8.11
2018-09-26T01:35:10.131Z,8.07
2018-09-26T01:39:13.503Z,8.02
2018-09-26T01:43:16.963Z,7.94
2018-09-26T01:47:20.351Z,7.93
2018-09-26T01:51:23.984Z,7.91
2018-09-26T01:55:27.491Z,7.92
2018-09-26T01:59:31.041Z,7.96
2018-09-26T02:03:34.622Z,7.95
2018-09-26T02:07:38.173Z,7.89
2018-09-26T02:11:41.726Z,7.85
2018-09-26T02:15:45.295Z,7.81
2018-09-26T02:19:48.783Z,7.79
2018-09-26T02:23:52.231Z,7.77
2018-09-26T02:27:55.608Z,7.73
2018-09-26T02:31:58.975Z,7.71
2018-09-26T02:36:02.416Z,7.69
2018-09-26T02:40:05.782Z,7.65
2018-09-26T02:44:09.314Z,7.60
2018-09-26T02:48:16.820Z,7.55
2018-09-26T02:52:20.206Z,7.47
2018-09-26T02:56:23.568Z,7.42
2018-09-26T03:00:27.013Z,7.37
2018-09-26T03:04:30.387Z,7.30
2018-09-26T03:08:33.825Z,7.25
2018-09-26T03:12:37.209Z,7.20
2018-09-26T03:16:40.541Z,7.15
2018-09-26T03:20:44.889Z,7.11
2018-09-26T03:24:48.274Z,7.10
2018-09-26T03:28:51.647Z,7.01
2018-09-26T03:32:55.039Z,6.98
2018-09-26T03:36:58.435Z,6.96
2018-09-26T03:41:01.805Z,6.95
2018-09-26T03:45:06.524Z,6.90
2018-09-26T03:49:10.047Z,6.87
2018-09-26T03:53:13.630Z,6.86
2018-09-26T03:57:17.142Z,6.85
2018-09-26T04:01:20.624Z,6.83
2018-09-26T04:05:24.233Z,6.83
2018-09-26T04:09:27.843Z,6.77
2018-09-26T04:13:31.446Z,6.73
2018-09-26T04:17:34.993Z,6.70
2018-09-26T04:21:38.569Z,6.66
2018-09-26T04:25:42.126Z,6.68
2018-09-26T04:29:45.708Z,6.76
2018-09-26T04:33:49.258Z,6.73
2018-09-26T04:37:52.769Z,6.65
2018-09-26T04:41:56.356Z,6.57
2018-09-26T04:45:59.885Z,6.52
2018-09-26T04:50:03.558Z,6.48
2018-09-26T04:54:07.319Z,6.48
2018-09-26T04:58:10.946Z,6.45
2018-09-26T05:02:14.424Z,6.47
2018-09-26T05:06:17.996Z,6.62
2018-09-26T05:10:21.554Z,6.64
2018-09-26T05:14:25.193Z,6.68
2018-09-26T05:18:28.751Z,6.69
2018-09-26T05:22:32.263Z,6.68
2018-09-26T05:26:35.816Z,6.71
2018-09-26T05:30:39.361Z,6.72
2018-09-26T05:34:42.880Z,6.72
2018-09-26T05:38:46.433Z,6.77
2018-09-26T05:42:50.013Z,6.79
2018-09-26T05:46:53.658Z,6.80
2018-09-26T05:50:57.201Z,6.87
2018-09-26T05:55:00.729Z,6.94
2018-09-26T05:59:04.491Z,7.02
2018-09-26T06:03:07.884Z,7.08
2018-09-26T06:07:11.287Z,7.14
2018-09-26T06:11:14.660Z,7.19
2018-09-26T06:15:18.086Z,7.23
2018-09-26T06:19:21.457Z,7.23
2018-09-26T06:23:24.788Z,7.22
2018-09-26T06:27:28.216Z,7.21
2018-09-26T06:31:31.634Z,7.25
2018-09-26T06:35:35.019Z,7.26
2018-09-26T06:39:38.406Z,7.29
2018-09-26T06:43:41.831Z,7.37
2018-09-26T06:47:45.198Z,7.43
2018-09-26T06:51:48.592Z,7.54
2018-09-26T06:55:52.055Z,7.67
2018-09-26T06:59:55.456Z,7.82
2018-09-26T07:03:58.821Z,8.03
2018-09-26T07:08:02.694Z,8.23
2018-09-26T07:12:06.133Z,8.48
2018-09-26T07:16:09.552Z,8.65
2018-09-26T07:20:12.910Z,8.79
2018-09-26T07:24:16.337Z,8.89
2018-09-26T07:28:19.719Z,9.05
2018-09-26T07:32:23.105Z,9.23
2018-09-26T07:36:26.511Z,9.34
2018-09-26T07:40:29.892Z,9.56
2018-09-26T07:44:33.262Z,9.74
2018-09-26T07:48:36.749Z,9.92
2018-09-26T07:52:40.227Z,10.03
2018-09-26T07:56:43.596Z,10.16
2018-09-26T08:00:47.091Z,10.31
2018-09-26T08:04:50.519Z,10.46
2018-09-26T08:08:53.907Z,10.60
2018-09-26T08:12:57.305Z,10.73
2018-09-26T08:17:00.762Z,10.87
2018-09-26T08:21:04.171Z,11.00
2018-09-26T08:25:07.597Z,11.12
2018-09-26T08:29:11.073Z,11.23
2018-09-26T08:33:14.512Z,11.37
2018-09-26T08:37:17.939Z,11.57
2018-09-26T08:41:21.359Z,11.74
2018-09-26T08:45:24.773Z,11.87
2018-09-26T08:49:28.188Z,11.97
2018-09-26T08:53:31.667Z,12.16
2018-09-26T08:57:35.004Z,12.34
2018-09-26T09:01:43.752Z,12.44
2018-09-26T09:05:47.159Z,12.55
2018-09-26T09:09:50.579Z,12.72
2018-09-26T09:13:54.139Z,12.87
2018-09-26T09:17:57.556Z,13.04
2018-09-26T09:22:01.064Z,13.18
2018-09-26T09:26:04.906Z,13.32
2018-09-26T09:30:08.348Z,13.37
2018-09-26T09:34:11.768Z,13.48
2018-09-26T09:38:15.204Z,13.62
2018-09-26T09:42:18.561Z,13.74
2018-09-26T09:46:21.975Z,13.88
2018-09-26T09:50:25.443Z,14.00
2018-09-26T09:54:29.273Z,14.09
2018-09-26T09:58:32.693Z,14.24
2018-09-26T10:02:36.158Z,14.34
2018-09-26T10:06:39.632Z,14.43
2018-09-26T10:10:43.012Z,14.56
2018-09-26T10:14:46.367Z,14.69
2018-09-26T10:18:49.791Z,14.79
2018-09-26T10:22:53.200Z,14.86
2018-09-26T10:26:57.075Z,14.86
2018-09-26T10:31:00.585Z,14.93
2018-09-26T10:35:04.168Z,14.98
2018-09-26T10:39:08.459Z,15.03
2018-09-26T10:43:11.868Z,15.18
2018-09-26T10:47:15.259Z,15.35
2018-09-26T10:51:18.659Z,15.42
2018-09-26T10:55:22.044Z,15.44
2018-09-26T10:59:25.484Z,15.44
2018-09-26T11:03:28.884Z,15.51
2018-09-26T11:07:32.292Z,15.63
2018-09-26T11:11:35.691Z,15.70
2018-09-26T11:15:39.052Z,15.76
2018-09-26T11:19:42.487Z,15.90
2018-09-26T11:23:45.909Z,15.94
2018-09-26T11:27:49.292Z,15.98
2018-09-26T11:31:52.661Z,15.93
2018-09-26T11:35:56.067Z,15.98
2018-09-26T11:39:59.551Z,16.08
2018-09-26T11:44:04.245Z,16.13
2018-09-26T11:48:07.604Z,16.24
2018-09-26T11:52:11.124Z,16.31
2018-09-26T11:56:14.857Z,16.39
2018-09-26T12:00:18.231Z,16.46
2018-09-26T12:04:21.625Z,16.50
2018-09-26T12:08:25.139Z,16.55
2018-09-26T12:12:28.530Z,16.54
2018-09-26T12:16:31.975Z,16.55
2018-09-26T12:20:35.347Z,16.61
2018-09-26T12:24:38.911Z,16.62
2018-09-26T12:28:42.493Z,16.68
2018-09-26T12:32:46.054Z,16.70
2018-09-26T12:36:49.807Z,16.80
2018-09-26T12:40:53.344Z,16.89
2018-09-26T12:44:56.699Z,16.90
2018-09-26T12:49:00.114Z,16.84
2018-09-26T12:53:03.559Z,16.82
2018-09-26T12:57:07.000Z,16.89
2018-09-26T13:01:10.465Z,16.91
2018-09-26T13:05:13.930Z,16.82
2018-09-26T13:09:17.391Z,16.86
2018-09-26T13:13:20.892Z,16.87
2018-09-26T13:17:24.312Z,16.88
2018-09-26T13:21:27.691Z,16.97
2018-09-26T13:25:31.159Z,16.91
2018-09-26T13:29:34.454Z,16.87
2018-09-26T13:33:37.871Z,16.82
2018-09-26T13:37:41.306Z,16.86
2018-09-26T13:41:44.715Z,16.87
2018-09-26T13:45:48.157Z,16.90
2018-09-26T13:49:51.513Z,16.87
2018-09-26T13:53:54.900Z,16.83
2018-09-26T13:57:58.289Z,16.80
2018-09-26T14:02:01.714Z,16.84
2018-09-26T14:06:05.411Z,16.87
2018-09-26T14:10:09.034Z,16.92
2018-09-26T14:14:12.528Z,16.88
2018-09-26T14:18:15.907Z,16.78
2018-09-26T14:22:19.345Z,16.73
2018-09-26T14:26:22.838Z,16.63
2018-09-26T14:30:26.227Z,16.64
2018-09-26T14:34:29.591Z,16.63
2018-09-26T14:38:32.960Z,16.57
2018-09-26T14:42:36.379Z,16.51
2018-09-26T14:46:39.928Z,16.45
2018-09-26T14:50:43.375Z,16.40
2018-09-26T14:54:46.814Z,16.38
2018-09-26T14:58:50.292Z,16.34
2018-09-26T15:02:53.692Z,16.30
2018-09-26T15:06:57.080Z,16.24
2018-09-26T15:11:00.444Z,16.19
2018-09-26T15:15:04.471Z,16.15
2018-09-26T15:19:08.115Z,16.11
2018-09-26T15:23:11.563Z,16.05
2018-09-26T15:27:14.904Z,16.04
2018-09-26T15:31:18.287Z,16.02
2018-09-26T15:35:21.914Z,15.98
2018-09-26T15:39:25.380Z,15.96
2018-09-26T15:43:28.784Z,15.91
2018-09-26T15:47:32.162Z,15.90
2018-09-26T15:51:35.816Z,15.89
2018-09-26T15:55:39.466Z,15.84
2018-09-26T15:59:43.174Z,15.80
2018-09-26T16:03:47.060Z,15.74
2018-09-26T16:07:50.423Z,15.67
2018-09-26T16:11:53.822Z,15.66
2018-09-26T16:15:57.215Z,15.59
2018-09-26T16:20:00.663Z,15.54
2018-09-26T16:24:04.061Z,15.50
2018-09-26T16:28:07.616Z,15.43
2018-09-26T16:32:11.033Z,15.37
2018-09-26T16:36:14.425Z,15.29
2018-09-26T16:40:17.840Z,15.20
2018-09-26T16:44:21.237Z,15.08
2018-09-26T16:48:24.759Z,15.00
2018-09-26T16:52:27.984Z,14.94
2018-09-26T16:56:31.427Z,14.90
2018-09-26T17:00:34.827Z,14.83
2018-09-26T17:04:38.319Z,14.75
2018-09-26T17:08:41.722Z,14.65
2018-09-26T17:12:45.277Z,14.60
2018-09-26T17:16:48.774Z,14.61
2018-09-26T17:20:52.175Z,14.58
2018-09-26T17:24:55.564Z,14.52
2018-09-26T17:28:59.184Z,14.45
2018-09-26T17:33:03.097Z,14.57
2018-09-26T17:37:06.607Z,14.42
2018-09-26T17:41:10.043Z,14.38
2018-09-26T17:45:13.399Z,14.33
2018-09-26T17:49:16.817Z,14.25
2018-09-26T17:53:20.219Z,14.18
2018-09-26T17:57:24.685Z,14.10
2018-09-26T18:01:28.134Z,14.02
2018-09-26T18:05:31.520Z,13.94
2018-09-26T18:09:34.992Z,13.85
2018-09-26T18:13:38.417Z,13.75
2018-09-26T18:17:41.924Z,13.63
2018-09-26T18:21:45.293Z,13.55
2018-09-26T18:25:48.872Z,13.51
2018-09-26T18:29:52.282Z,13.51
2018-09-26T18:33:55.819Z,13.46
2018-09-26T18:37:59.212Z,13.41
2018-09-26T18:42:04.224Z,13.34
2018-09-26T18:46:07.972Z,13.28
2018-09-26T18:50:11.492Z,13.19
2018-09-26T18:54:14.865Z,13.12
2018-09-26T18:58:18.373Z,13.03
2018-09-26T19:02:21.815Z,12.99
2018-09-26T19:06:25.584Z,12.96
2018-09-26T19:10:28.966Z,12.92
2018-09-26T19:14:32.439Z,12.85
2018-09-26T19:18:35.855Z,12.79
2018-09-26T19:22:40.023Z,12.75
2018-09-26T19:26:44.387Z,12.72
2018-09-26T19:30:47.815Z,12.65
2018-09-26T19:34:51.284Z,12.57
2018-09-26T19:38:54.882Z,12.54
2018-09-26T19:42:58.368Z,12.51
2018-09-26T19:47:01.736Z,12.44
2018-09-26T19:51:05.226Z,12.38
2018-09-26T19:55:08.583Z,12.34
2018-09-26T19:59:12.073Z,12.31
2018-09-26T20:03:15.676Z,12.21
2018-09-26T20:07:19.196Z,12.15
2018-09-26T20:11:22.782Z,12.11
2018-09-26T20:15:26.344Z,12.05
2018-09-26T20:19:29.840Z,12.03
2018-09-26T20:23:33.501Z,12.01
2018-09-26T20:27:37.058Z,11.98
2018-09-26T20:31:40.579Z,11.91
2018-09-26T20:35:44.153Z,11.79
2018-09-26T20:39:47.663Z,11.74
2018-09-26T20:43:51.287Z,11.69
2018-09-26T20:47:54.864Z,11.67
2018-09-26T20:51:58.603Z,11.67
2018-09-26T20:56:03.795Z,11.67
2018-09-26T21:00:07.264Z,11.67
2018-09-26T21:04:10.651Z,11.66
2018-09-26T21:08:14.101Z,11.63
2018-09-26T21:12:17.524Z,11.61
2018-09-26T21:16:20.960Z,11.56
2018-09-26T21:20:24.386Z,11.52
2018-09-26T21:24:27.792Z,11.50
2018-09-26T21:28:31.187Z,11.50
2018-09-26T21:32:34.704Z,11.44
2018-09-26T21:36:38.089Z,11.41
2018-09-26T21:40:41.535Z,11.38
2018-09-26T21:44:44.942Z,11.34
2018-09-26T21:48:48.315Z,11.30
2018-09-26T21:52:51.773Z,11.26
2018-09-26T21:56:55.205Z,11.21
2018-09-26T22:01:05.504Z,11.20
2018-09-26T22:05:08.927Z,11.13
2018-09-26T22:09:12.319Z,11.07
2018-09-26T22:13:15.723Z,11.02
2018-09-26T22:17:19.111Z,10.98
2018-09-26T22:21:22.490Z,10.96
2018-09-26T22:25:25.895Z,10.90
2018-09-26T22:29:29.280Z,10.83
2018-09-26T22:33:32.682Z,10.80
2018-09-26T22:37:36.198Z,10.76
2018-09-26T22:41:39.737Z,10.71
2018-09-26T22:45:43.112Z,10.69
2018-09-26T22:49:46.516Z,10.62
2018-09-26T22:53:49.922Z,10.55
2018-09-26T22:57:53.331Z,10.52
2018-09-26T23:01:56.688Z,10.49
2018-09-26T23:06:00.060Z,10.46
2018-09-26T23:10:03.449Z,10.42
2018-09-26T23:14:06.837Z,10.39
2018-09-26T23:18:10.246Z,10.35
2018-09-26T23:22:13.616Z,10.33
2018-09-26T23:26:16.983Z,10.33
2018-09-26T23:30:20.593Z,10.27
2018-09-26T23:34:24.080Z,10.18
2018-09-26T23:38:27.456Z,10.15
2018-09-26T23:42:30.911Z,10.06
2018-09-26T23:46:34.491Z,9.96
2018-09-26T23:50:37.863Z,9.91
2018-09-26T23:54:41.312Z,9.90
2018-09-26T23:58:44.695Z,9.89
